sensor_id;sensor_type;location;lat;lon;timestamp;temperature;humidity
27409;DHT22;20413;50.782;7.152;2023-02-18T00:01:35;11.90;99.90
27409;DHT22;20413;50.782;7.152;2023-02-18T00:04:01;11.80;99.90
27409;DHT22;20413;50.782;7.152;2023-02-18T00:06:32;11.80;99.90
27409;DHT22;20413;50.782;7.152;2023-02-18T00:08:58;11.80;99.90
27409;DHT22;20413;50.782;7.152;2023-02-18T00:11:27;11.80;99.90
27409;DHT22;20413;50.782;7.152;2023-02-18T00:13:54;11.80;99.90
27409;DHT22;20413;50.782;7.152;2023-02-18T00:16:21;11.70;99.90
27409;DHT22;20413;50.782;7.152;2023-02-18T00:18:47;11.70;99.90
27409;DHT22;20413;50.782;7.152;2023-02-18T00:21:13;11.80;99.90
27409;DHT22;20413;50.782;7.152;2023-02-18T00:23:39;11.70;99.90
27409;DHT22;20413;50.782;7.152;2023-02-18T00:26:10;11.70;99.90
27409;DHT22;20413;50.782;7.152;2023-02-18T00:28:36;11.70;99.90
27409;DHT22;20413;50.782;7.152;2023-02-18T00:31:14;11.70;99.90
27409;DHT22;20413;50.782;7.152;2023-02-18T00:33:43;11.70;99.90
27409;DHT22;20413;50.782;7.152;2023-02-18T00:36:12;11.70;99.90
27409;DHT22;20413;50.782;7.152;2023-02-18T00:38:38;11.70;99.90
27409;DHT22;20413;50.782;7.152;2023-02-18T00:41:04;11.70;99.90
27409;DHT22;20413;50.782;7.152;2023-02-18T00:43:29;11.70;99.90
27409;DHT22;20413;50.782;7.152;2023-02-18T00:45:55;11.70;99.90
27409;DHT22;20413;50.782;7.152;2023-02-18T00:48:21;11.70;99.90
27409;DHT22;20413;50.782;7.152;2023-02-18T00:50:46;11.70;99.90
27409;DHT22;20413;50.782;7.152;2023-02-18T00:53:12;11.70;99.90
27409;DHT22;20413;50.782;7.152;2023-02-18T00:55:42;11.70;99.90
27409;DHT22;20413;50.782;7.152;2023-02-18T00:58:09;11.70;99.90
27409;DHT22;20413;50.782;7.152;2023-02-18T01:00:35;11.70;99.90
27409;DHT22;20413;50.782;7.152;2023-02-18T01:03:00;11.70;99.90
27409;DHT22;20413;50.782;7.152;2023-02-18T01:05:26;11.70;99.90
27409;DHT22;20413;50.782;7.152;2023-02-18T01:07:52;11.70;99.90
27409;DHT22;20413;50.782;7.152;2023-02-18T01:10:17;11.80;99.90
27409;DHT22;20413;50.782;7.152;2023-02-18T01:12:43;11.70;99.90
27409;DHT22;20413;50.782;7.152;2023-02-18T01:15:11;11.70;99.90
27409;DHT22;20413;50.782;7.152;2023-02-18T01:17:39;11.70;99.90
27409;DHT22;20413;50.782;7.152;2023-02-18T01:20:05;11.70;99.90
27409;DHT22;20413;50.782;7.152;2023-02-18T01:22:31;11.70;99.90
27409;DHT22;20413;50.782;7.152;2023-02-18T01:24:57;11.70;99.90
27409;DHT22;20413;50.782;7.152;2023-02-18T01:27:22;11.70;99.90
27409;DHT22;20413;50.782;7.152;2023-02-18T01:29:48;11.70;99.90
27409;DHT22;20413;50.782;7.152;2023-02-18T01:32:13;11.70;99.90
27409;DHT22;20413;50.782;7.152;2023-02-18T01:34:39;11.70;99.90
27409;DHT22;20413;50.782;7.152;2023-02-18T01:37:07;11.70;99.90
27409;DHT22;20413;50.782;7.152;2023-02-18T01:39:32;11.80;99.90
27409;DHT22;20413;50.782;7.152;2023-02-18T01:41:58;11.70;99.90
27409;DHT22;20413;50.782;7.152;2023-02-18T01:44:26;11.80;99.90
27409;DHT22;20413;50.782;7.152;2023-02-18T01:46:52;11.70;99.90
27409;DHT22;20413;50.782;7.152;2023-02-18T01:49:33;11.80;99.90
27409;DHT22;20413;50.782;7.152;2023-02-18T01:52:03;11.80;99.90
27409;DHT22;20413;50.782;7.152;2023-02-18T01:54:35;11.80;99.90
27409;DHT22;20413;50.782;7.152;2023-02-18T01:57:17;11.80;99.90
27409;DHT22;20413;50.782;7.152;2023-02-18T01:59:51;11.70;99.90
27409;DHT22;20413;50.782;7.152;2023-02-18T02:02:19;11.70;99.90
27409;DHT22;20413;50.782;7.152;2023-02-18T02:04:46;11.70;99.90
27409;DHT22;20413;50.782;7.152;2023-02-18T02:07:17;11.70;99.90
27409;DHT22;20413;50.782;7.152;2023-02-18T02:09:44;11.60;99.90
27409;DHT22;20413;50.782;7.152;2023-02-18T02:17:35;11.60;99.90
27409;DHT22;20413;50.782;7.152;2023-02-18T02:20:29;11.70;99.90
27409;DHT22;20413;50.782;7.152;2023-02-18T02:34:28;11.50;99.90
27409;DHT22;20413;50.782;7.152;2023-02-18T02:37:17;11.50;99.90
27409;DHT22;20413;50.782;7.152;2023-02-18T02:51:09;11.30;99.90
27409;DHT22;20413;50.782;7.152;2023-02-18T02:53:40;11.30;99.90
27409;DHT22;20413;50.782;7.152;2023-02-18T02:56:12;11.30;99.90
27409;DHT22;20413;50.782;7.152;2023-02-18T02:58:38;11.30;99.90
27409;DHT22;20413;50.782;7.152;2023-02-18T03:01:23;11.30;99.90
27409;DHT22;20413;50.782;7.152;2023-02-18T03:07:10;11.30;99.90
27409;DHT22;20413;50.782;7.152;2023-02-18T03:12:48;11.30;99.90
27409;DHT22;20413;50.782;7.152;2023-02-18T03:15:23;11.30;99.90
27409;DHT22;20413;50.782;7.152;2023-02-18T03:18:06;11.30;99.90
27409;DHT22;20413;50.782;7.152;2023-02-18T03:20:40;11.30;99.90
27409;DHT22;20413;50.782;7.152;2023-02-18T03:23:10;11.30;99.90
27409;DHT22;20413;50.782;7.152;2023-02-18T03:25:41;11.30;99.90
27409;DHT22;20413;50.782;7.152;2023-02-18T03:28:17;11.30;99.90
27409;DHT22;20413;50.782;7.152;2023-02-18T03:30:52;11.30;99.90
27409;DHT22;20413;50.782;7.152;2023-02-18T03:33:24;11.40;99.90
27409;DHT22;20413;50.782;7.152;2023-02-18T03:35:52;11.40;99.90
27409;DHT22;20413;50.782;7.152;2023-02-18T03:38:39;11.40;99.90
27409;DHT22;20413;50.782;7.152;2023-02-18T03:41:06;11.40;99.90
27409;DHT22;20413;50.782;7.152;2023-02-18T03:43:35;11.30;99.90
27409;DHT22;20413;50.782;7.152;2023-02-18T03:46:01;11.30;99.90
27409;DHT22;20413;50.782;7.152;2023-02-18T03:48:27;11.30;99.90
27409;DHT22;20413;50.782;7.152;2023-02-18T03:50:56;11.30;99.90
27409;DHT22;20413;50.782;7.152;2023-02-18T03:53:22;11.20;99.90
27409;DHT22;20413;50.782;7.152;2023-02-18T03:55:47;11.20;99.90
27409;DHT22;20413;50.782;7.152;2023-02-18T03:58:13;11.30;99.90
27409;DHT22;20413;50.782;7.152;2023-02-18T04:00:38;11.40;99.90
27409;DHT22;20413;50.782;7.152;2023-02-18T04:03:04;11.50;99.90
27409;DHT22;20413;50.782;7.152;2023-02-18T04:05:29;11.60;99.90
27409;DHT22;20413;50.782;7.152;2023-02-18T04:07:55;11.60;99.90
27409;DHT22;20413;50.782;7.152;2023-02-18T04:10:20;11.70;99.90
27409;DHT22;20413;50.782;7.152;2023-02-18T04:12:47;11.70;99.90
27409;DHT22;20413;50.782;7.152;2023-02-18T04:15:13;11.80;99.90
27409;DHT22;20413;50.782;7.152;2023-02-18T04:17:38;11.90;99.90
27409;DHT22;20413;50.782;7.152;2023-02-18T04:20:04;11.90;99.90
27409;DHT22;20413;50.782;7.152;2023-02-18T04:22:30;11.90;99.90
27409;DHT22;20413;50.782;7.152;2023-02-18T04:24:56;12.00;99.90
27409;DHT22;20413;50.782;7.152;2023-02-18T04:27:22;12.00;99.90
27409;DHT22;20413;50.782;7.152;2023-02-18T04:29:47;12.00;99.90
27409;DHT22;20413;50.782;7.152;2023-02-18T04:32:13;12.00;99.90
27409;DHT22;20413;50.782;7.152;2023-02-18T04:34:38;12.00;99.90
27409;DHT22;20413;50.782;7.152;2023-02-18T04:37:04;12.00;99.90
27409;DHT22;20413;50.782;7.152;2023-02-18T04:39:29;12.10;99.90
27409;DHT22;20413;50.782;7.152;2023-02-18T04:41:55;12.10;99.90
27409;DHT22;20413;50.782;7.152;2023-02-18T04:44:20;12.00;99.90
27409;DHT22;20413;50.782;7.152;2023-02-18T04:46:46;12.10;99.90
27409;DHT22;20413;50.782;7.152;2023-02-18T04:49:12;12.00;99.90
27409;DHT22;20413;50.782;7.152;2023-02-18T04:51:37;12.00;99.90
27409;DHT22;20413;50.782;7.152;2023-02-18T04:54:04;12.00;99.90
27409;DHT22;20413;50.782;7.152;2023-02-18T04:56:29;11.90;99.90
27409;DHT22;20413;50.782;7.152;2023-02-18T04:58:55;11.90;99.90
27409;DHT22;20413;50.782;7.152;2023-02-18T05:01:20;12.00;99.90
27409;DHT22;20413;50.782;7.152;2023-02-18T05:03:46;12.00;99.90
27409;DHT22;20413;50.782;7.152;2023-02-18T05:06:12;12.00;99.90
27409;DHT22;20413;50.782;7.152;2023-02-18T05:08:40;12.00;99.90
27409;DHT22;20413;50.782;7.152;2023-02-18T05:11:07;12.00;99.90
27409;DHT22;20413;50.782;7.152;2023-02-18T05:13:32;12.00;99.90
27409;DHT22;20413;50.782;7.152;2023-02-18T05:15:58;12.00;99.90
27409;DHT22;20413;50.782;7.152;2023-02-18T05:18:24;12.10;99.90
27409;DHT22;20413;50.782;7.152;2023-02-18T05:20:49;12.10;99.90
27409;DHT22;20413;50.782;7.152;2023-02-18T05:23:15;12.00;99.90
27409;DHT22;20413;50.782;7.152;2023-02-18T05:25:40;12.00;99.90
27409;DHT22;20413;50.782;7.152;2023-02-18T05:28:06;12.00;99.90
27409;DHT22;20413;50.782;7.152;2023-02-18T05:30:32;12.00;99.90
27409;DHT22;20413;50.782;7.152;2023-02-18T05:32:57;12.00;99.90
27409;DHT22;20413;50.782;7.152;2023-02-18T05:35:23;12.00;99.90
27409;DHT22;20413;50.782;7.152;2023-02-18T05:37:49;12.00;99.90
27409;DHT22;20413;50.782;7.152;2023-02-18T05:40:14;12.10;99.90
27409;DHT22;20413;50.782;7.152;2023-02-18T05:42:40;12.10;99.90
27409;DHT22;20413;50.782;7.152;2023-02-18T05:45:06;12.10;99.90
27409;DHT22;20413;50.782;7.152;2023-02-18T05:47:31;12.10;99.90
27409;DHT22;20413;50.782;7.152;2023-02-18T05:49:57;12.20;99.90
27409;DHT22;20413;50.782;7.152;2023-02-18T05:52:22;12.20;99.90
27409;DHT22;20413;50.782;7.152;2023-02-18T05:54:48;12.20;99.90
27409;DHT22;20413;50.782;7.152;2023-02-18T05:57:14;12.20;99.90
27409;DHT22;20413;50.782;7.152;2023-02-18T05:59:40;12.10;99.90
27409;DHT22;20413;50.782;7.152;2023-02-18T06:02:06;12.10;99.90
27409;DHT22;20413;50.782;7.152;2023-02-18T06:04:31;12.10;99.90
27409;DHT22;20413;50.782;7.152;2023-02-18T06:06:57;12.10;99.90
27409;DHT22;20413;50.782;7.152;2023-02-18T06:09:23;12.10;99.90
27409;DHT22;20413;50.782;7.152;2023-02-18T06:11:49;12.10;99.90
27409;DHT22;20413;50.782;7.152;2023-02-18T06:14:15;12.00;99.90
27409;DHT22;20413;50.782;7.152;2023-02-18T06:16:40;12.00;99.90
27409;DHT22;20413;50.782;7.152;2023-02-18T06:19:06;11.90;99.90
27409;DHT22;20413;50.782;7.152;2023-02-18T06:21:32;12.00;99.90
27409;DHT22;20413;50.782;7.152;2023-02-18T06:23:58;12.00;99.90
27409;DHT22;20413;50.782;7.152;2023-02-18T06:26:23;12.00;99.90
27409;DHT22;20413;50.782;7.152;2023-02-18T06:28:49;12.00;99.90
27409;DHT22;20413;50.782;7.152;2023-02-18T06:31:15;12.00;99.90
27409;DHT22;20413;50.782;7.152;2023-02-18T06:33:40;12.00;99.90
27409;DHT22;20413;50.782;7.152;2023-02-18T06:36:07;12.10;99.90
27409;DHT22;20413;50.782;7.152;2023-02-18T06:38:34;12.10;99.90
27409;DHT22;20413;50.782;7.152;2023-02-18T06:41:00;12.10;99.90
27409;DHT22;20413;50.782;7.152;2023-02-18T06:43:26;12.10;99.90
27409;DHT22;20413;50.782;7.152;2023-02-18T06:45:52;12.20;99.90
27409;DHT22;20413;50.782;7.152;2023-02-18T06:48:17;12.20;99.90
27409;DHT22;20413;50.782;7.152;2023-02-18T06:50:44;12.10;99.90
27409;DHT22;20413;50.782;7.152;2023-02-18T06:53:10;12.00;99.90
27409;DHT22;20413;50.782;7.152;2023-02-18T06:55:36;12.00;99.90
27409;DHT22;20413;50.782;7.152;2023-02-18T06:58:01;12.00;99.90
27409;DHT22;20413;50.782;7.152;2023-02-18T07:00:27;12.00;99.90
27409;DHT22;20413;50.782;7.152;2023-02-18T07:02:52;12.00;99.90
27409;DHT22;20413;50.782;7.152;2023-02-18T07:05:18;12.00;99.90
27409;DHT22;20413;50.782;7.152;2023-02-18T07:07:44;12.00;99.90
27409;DHT22;20413;50.782;7.152;2023-02-18T07:10:09;12.00;99.90
27409;DHT22;20413;50.782;7.152;2023-02-18T07:12:35;12.00;99.90
27409;DHT22;20413;50.782;7.152;2023-02-18T07:15:01;12.00;99.90
27409;DHT22;20413;50.782;7.152;2023-02-18T07:17:26;12.00;99.90
27409;DHT22;20413;50.782;7.152;2023-02-18T07:19:52;12.00;99.90
27409;DHT22;20413;50.782;7.152;2023-02-18T07:22:17;11.90;99.90
27409;DHT22;20413;50.782;7.152;2023-02-18T07:24:43;12.00;99.90
27409;DHT22;20413;50.782;7.152;2023-02-18T07:27:09;12.00;99.90
27409;DHT22;20413;50.782;7.152;2023-02-18T07:29:35;12.00;99.90
27409;DHT22;20413;50.782;7.152;2023-02-18T07:32:00;12.10;99.90
27409;DHT22;20413;50.782;7.152;2023-02-18T07:34:26;12.10;99.90
27409;DHT22;20413;50.782;7.152;2023-02-18T07:36:51;12.10;99.90
27409;DHT22;20413;50.782;7.152;2023-02-18T07:39:17;12.10;99.90
27409;DHT22;20413;50.782;7.152;2023-02-18T07:41:48;12.10;99.90
27409;DHT22;20413;50.782;7.152;2023-02-18T07:44:14;12.10;99.90
27409;DHT22;20413;50.782;7.152;2023-02-18T07:46:42;12.10;99.90
27409;DHT22;20413;50.782;7.152;2023-02-18T07:49:09;12.10;99.90
27409;DHT22;20413;50.782;7.152;2023-02-18T07:51:35;12.10;99.90
27409;DHT22;20413;50.782;7.152;2023-02-18T07:54:02;12.10;99.90
27409;DHT22;20413;50.782;7.152;2023-02-18T07:56:28;12.10;99.90
27409;DHT22;20413;50.782;7.152;2023-02-18T07:58:54;12.00;99.90
27409;DHT22;20413;50.782;7.152;2023-02-18T08:01:19;12.00;99.90
27409;DHT22;20413;50.782;7.152;2023-02-18T08:03:45;12.00;99.90
27409;DHT22;20413;50.782;7.152;2023-02-18T08:06:53;12.00;99.90
27409;DHT22;20413;50.782;7.152;2023-02-18T08:09:12;12.10;99.90
27409;DHT22;20413;50.782;7.152;2023-02-18T08:11:38;12.10;99.90
27409;DHT22;20413;50.782;7.152;2023-02-18T08:14:07;12.10;99.90
27409;DHT22;20413;50.782;7.152;2023-02-18T08:16:33;12.10;99.90
27409;DHT22;20413;50.782;7.152;2023-02-18T08:18:59;12.20;99.90
27409;DHT22;20413;50.782;7.152;2023-02-18T08:21:26;12.20;99.90
27409;DHT22;20413;50.782;7.152;2023-02-18T08:23:52;12.10;99.90
27409;DHT22;20413;50.782;7.152;2023-02-18T08:26:20;12.10;99.90
27409;DHT22;20413;50.782;7.152;2023-02-18T08:28:46;12.00;99.90
27409;DHT22;20413;50.782;7.152;2023-02-18T08:31:24;11.90;99.90
27409;DHT22;20413;50.782;7.152;2023-02-18T08:33:50;11.80;99.90
27409;DHT22;20413;50.782;7.152;2023-02-18T08:36:17;11.60;99.90
27409;DHT22;20413;50.782;7.152;2023-02-18T08:38:42;11.40;99.90
27409;DHT22;20413;50.782;7.152;2023-02-18T08:41:09;11.20;99.90
27409;DHT22;20413;50.782;7.152;2023-02-18T08:43:34;11.20;99.90
27409;DHT22;20413;50.782;7.152;2023-02-18T08:46:01;11.20;99.90
27409;DHT22;20413;50.782;7.152;2023-02-18T08:48:27;11.10;99.90
27409;DHT22;20413;50.782;7.152;2023-02-18T08:50:53;11.10;99.90
27409;DHT22;20413;50.782;7.152;2023-02-18T08:53:18;11.10;99.90
27409;DHT22;20413;50.782;7.152;2023-02-18T08:55:44;11.20;99.90
27409;DHT22;20413;50.782;7.152;2023-02-18T08:58:10;11.30;99.90
27409;DHT22;20413;50.782;7.152;2023-02-18T09:00:36;11.30;99.90
27409;DHT22;20413;50.782;7.152;2023-02-18T09:03:05;11.40;99.90
27409;DHT22;20413;50.782;7.152;2023-02-18T09:05:31;11.50;99.90
27409;DHT22;20413;50.782;7.152;2023-02-18T09:07:57;11.50;99.90
27409;DHT22;20413;50.782;7.152;2023-02-18T09:10:23;11.70;99.90
27409;DHT22;20413;50.782;7.152;2023-02-18T09:12:49;11.70;99.90
27409;DHT22;20413;50.782;7.152;2023-02-18T09:15:14;11.80;99.90
27409;DHT22;20413;50.782;7.152;2023-02-18T09:17:40;11.80;99.90
27409;DHT22;20413;50.782;7.152;2023-02-18T09:20:06;11.90;99.90
27409;DHT22;20413;50.782;7.152;2023-02-18T09:22:32;11.90;99.90
27409;DHT22;20413;50.782;7.152;2023-02-18T09:24:58;11.90;99.90
27409;DHT22;20413;50.782;7.152;2023-02-18T09:27:23;11.80;99.90
27409;DHT22;20413;50.782;7.152;2023-02-18T09:29:49;11.80;99.90
27409;DHT22;20413;50.782;7.152;2023-02-18T09:32:16;11.80;99.90
27409;DHT22;20413;50.782;7.152;2023-02-18T09:34:43;11.70;99.90
27409;DHT22;20413;50.782;7.152;2023-02-18T09:37:09;11.70;99.90
27409;DHT22;20413;50.782;7.152;2023-02-18T09:39:35;11.60;99.90
27409;DHT22;20413;50.782;7.152;2023-02-18T09:42:06;11.70;99.90
27409;DHT22;20413;50.782;7.152;2023-02-18T09:44:42;11.70;99.90
27409;DHT22;20413;50.782;7.152;2023-02-18T09:47:33;11.70;99.90
27409;DHT22;20413;50.782;7.152;2023-02-18T09:50:06;11.70;99.90
27409;DHT22;20413;50.782;7.152;2023-02-18T09:52:37;11.70;99.90
27409;DHT22;20413;50.782;7.152;2023-02-18T09:55:17;11.70;99.90
27409;DHT22;20413;50.782;7.152;2023-02-18T09:57:49;11.70;99.90
27409;DHT22;20413;50.782;7.152;2023-02-18T10:00:24;11.70;99.90
27409;DHT22;20413;50.782;7.152;2023-02-18T10:02:57;11.70;99.90
27409;DHT22;20413;50.782;7.152;2023-02-18T10:05:25;11.80;99.90
27409;DHT22;20413;50.782;7.152;2023-02-18T10:07:55;11.80;99.90
27409;DHT22;20413;50.782;7.152;2023-02-18T10:10:38;11.90;99.90
27409;DHT22;20413;50.782;7.152;2023-02-18T10:13:13;11.90;99.90
27409;DHT22;20413;50.782;7.152;2023-02-18T10:15:40;11.90;99.90
27409;DHT22;20413;50.782;7.152;2023-02-18T10:20:47;11.90;99.90
27409;DHT22;20413;50.782;7.152;2023-02-18T10:23:14;11.80;99.90
27409;DHT22;20413;50.782;7.152;2023-02-18T10:25:43;11.80;99.90
27409;DHT22;20413;50.782;7.152;2023-02-18T10:28:10;11.80;99.90
27409;DHT22;20413;50.782;7.152;2023-02-18T10:30:41;11.90;99.90
27409;DHT22;20413;50.782;7.152;2023-02-18T10:36:23;11.90;99.90
27409;DHT22;20413;50.782;7.152;2023-02-18T10:44:29;11.80;99.90
27409;DHT22;20413;50.782;7.152;2023-02-18T10:51:54;11.90;99.90
27409;DHT22;20413;50.782;7.152;2023-02-18T10:54:25;11.90;99.90
27409;DHT22;20413;50.782;7.152;2023-02-18T10:56:52;11.90;99.90
27409;DHT22;20413;50.782;7.152;2023-02-18T10:59:25;11.90;99.90
27409;DHT22;20413;50.782;7.152;2023-02-18T11:02:00;11.90;99.90
27409;DHT22;20413;50.782;7.152;2023-02-18T11:04:39;12.00;99.90
27409;DHT22;20413;50.782;7.152;2023-02-18T11:07:24;12.00;99.90
27409;DHT22;20413;50.782;7.152;2023-02-18T11:09:55;12.10;99.90
27409;DHT22;20413;50.782;7.152;2023-02-18T11:12:23;12.00;99.90
27409;DHT22;20413;50.782;7.152;2023-02-18T11:17:35;12.10;99.90
27409;DHT22;20413;50.782;7.152;2023-02-18T11:20:53;12.00;99.90
27409;DHT22;20413;50.782;7.152;2023-02-18T11:23:17;11.80;99.90
27409;DHT22;20413;50.782;7.152;2023-02-18T11:25:54;11.60;99.90
27409;DHT22;20413;50.782;7.152;2023-02-18T11:28:40;11.40;99.90
27409;DHT22;20413;50.782;7.152;2023-02-18T11:31:07;11.10;99.90
27409;DHT22;20413;50.782;7.152;2023-02-18T11:33:47;11.00;99.90
27409;DHT22;20413;50.782;7.152;2023-02-18T11:41:33;11.10;99.90
27409;DHT22;20413;50.782;7.152;2023-02-18T11:44:00;11.20;99.90
27409;DHT22;20413;50.782;7.152;2023-02-18T11:46:27;11.20;99.90
27409;DHT22;20413;50.782;7.152;2023-02-18T11:48:54;11.30;99.90
27409;DHT22;20413;50.782;7.152;2023-02-18T11:51:53;11.40;99.90
27409;DHT22;20413;50.782;7.152;2023-02-18T11:54:29;11.50;99.90
27409;DHT22;20413;50.782;7.152;2023-02-18T11:56:59;11.50;99.90
27409;DHT22;20413;50.782;7.152;2023-02-18T11:59:26;11.40;99.90
27409;DHT22;20413;50.782;7.152;2023-02-18T12:02:02;11.30;99.90
27409;DHT22;20413;50.782;7.152;2023-02-18T12:04:40;11.20;99.90
27409;DHT22;20413;50.782;7.152;2023-02-18T12:07:21;11.00;99.90
27409;DHT22;20413;50.782;7.152;2023-02-18T12:09:57;11.00;99.90
27409;DHT22;20413;50.782;7.152;2023-02-18T12:12:46;11.00;99.90
27409;DHT22;20413;50.782;7.152;2023-02-18T12:15:21;11.00;99.90
27409;DHT22;20413;50.782;7.152;2023-02-18T12:20:45;11.00;99.90
27409;DHT22;20413;50.782;7.152;2023-02-18T12:29:11;10.90;99.90
27409;DHT22;20413;50.782;7.152;2023-02-18T12:31:50;10.90;99.90
27409;DHT22;20413;50.782;7.152;2023-02-18T12:39:48;11.00;99.90
27409;DHT22;20413;50.782;7.152;2023-02-18T12:42:45;11.00;99.90
27409;DHT22;20413;50.782;7.152;2023-02-18T12:51:32;11.20;99.90
27409;DHT22;20413;50.782;7.152;2023-02-18T12:57:00;11.30;99.90
27409;DHT22;20413;50.782;7.152;2023-02-18T13:02:10;11.50;99.90
27409;DHT22;20413;50.782;7.152;2023-02-18T13:04:52;11.50;99.90
27409;DHT22;20413;50.782;7.152;2023-02-18T13:15:17;11.40;99.90
27409;DHT22;20413;50.782;7.152;2023-02-18T13:17:43;11.50;99.90
27409;DHT22;20413;50.782;7.152;2023-02-18T13:20:39;11.50;99.90
27409;DHT22;20413;50.782;7.152;2023-02-18T13:23:15;11.50;99.90
27409;DHT22;20413;50.782;7.152;2023-02-18T13:25:41;11.60;99.90
27409;DHT22;20413;50.782;7.152;2023-02-18T13:28:20;11.50;99.90
27409;DHT22;20413;50.782;7.152;2023-02-18T13:30:57;11.40;99.90
27409;DHT22;20413;50.782;7.152;2023-02-18T13:41:25;11.50;99.90
27409;DHT22;20413;50.782;7.152;2023-02-18T13:43:51;11.80;99.90
27409;DHT22;20413;50.782;7.152;2023-02-18T13:46:24;11.80;99.90
27409;DHT22;20413;50.782;7.152;2023-02-18T13:49:10;11.90;99.90
27409;DHT22;20413;50.782;7.152;2023-02-18T13:51:45;11.90;99.90
27409;DHT22;20413;50.782;7.152;2023-02-18T13:56:46;11.80;99.90
27409;DHT22;20413;50.782;7.152;2023-02-18T14:01:45;11.80;99.90
27409;DHT22;20413;50.782;7.152;2023-02-18T14:09:46;11.80;99.90
27409;DHT22;20413;50.782;7.152;2023-02-18T14:14:52;11.80;99.90
27409;DHT22;20413;50.782;7.152;2023-02-18T14:25:02;11.80;99.90
27409;DHT22;20413;50.782;7.152;2023-02-18T14:27:28;11.80;99.90
27409;DHT22;20413;50.782;7.152;2023-02-18T14:29:54;11.80;99.90
27409;DHT22;20413;50.782;7.152;2023-02-18T14:32:26;11.80;99.90
27409;DHT22;20413;50.782;7.152;2023-02-18T14:38:05;11.80;99.90
27409;DHT22;20413;50.782;7.152;2023-02-18T14:46:33;11.90;99.90
27409;DHT22;20413;50.782;7.152;2023-02-18T14:49:35;11.80;99.90
27409;DHT22;20413;50.782;7.152;2023-02-18T14:52:03;11.80;99.90
27409;DHT22;20413;50.782;7.152;2023-02-18T14:54:31;11.80;99.90
27409;DHT22;20413;50.782;7.152;2023-02-18T14:56:59;11.80;99.90
27409;DHT22;20413;50.782;7.152;2023-02-18T14:59:33;11.80;99.90
27409;DHT22;20413;50.782;7.152;2023-02-18T15:01:59;11.90;99.90
27409;DHT22;20413;50.782;7.152;2023-02-18T15:04:25;11.90;99.90
27409;DHT22;20413;50.782;7.152;2023-02-18T15:07:02;11.90;99.90
27409;DHT22;20413;50.782;7.152;2023-02-18T15:09:29;11.90;99.90
27409;DHT22;20413;50.782;7.152;2023-02-18T15:11:59;11.80;99.90
27409;DHT22;20413;50.782;7.152;2023-02-18T15:14:43;11.80;99.90
27409;DHT22;20413;50.782;7.152;2023-02-18T15:17:18;11.80;99.90
27409;DHT22;20413;50.782;7.152;2023-02-18T15:19:51;11.80;99.90
27409;DHT22;20413;50.782;7.152;2023-02-18T15:22:25;11.80;99.90
27409;DHT22;20413;50.782;7.152;2023-02-18T15:24:53;11.80;99.90
27409;DHT22;20413;50.782;7.152;2023-02-18T15:27:28;11.80;99.90
27409;DHT22;20413;50.782;7.152;2023-02-18T15:30:12;11.80;99.90
27409;DHT22;20413;50.782;7.152;2023-02-18T15:32:45;11.80;99.90
27409;DHT22;20413;50.782;7.152;2023-02-18T15:35:17;11.80;99.90
27409;DHT22;20413;50.782;7.152;2023-02-18T15:37:45;11.80;99.90
27409;DHT22;20413;50.782;7.152;2023-02-18T15:40:15;11.80;99.90
27409;DHT22;20413;50.782;7.152;2023-02-18T15:42:41;11.80;99.90
27409;DHT22;20413;50.782;7.152;2023-02-18T15:45:21;11.80;99.90
27409;DHT22;20413;50.782;7.152;2023-02-18T15:47:50;11.80;99.90
27409;DHT22;20413;50.782;7.152;2023-02-18T15:52:54;11.80;99.90
27409;DHT22;20413;50.782;7.152;2023-02-18T15:57:48;11.80;99.90
27409;DHT22;20413;50.782;7.152;2023-02-18T16:00:24;11.80;99.90
27409;DHT22;20413;50.782;7.152;2023-02-18T16:03:21;11.70;99.90
27409;DHT22;20413;50.782;7.152;2023-02-18T16:05:47;11.80;99.90
27409;DHT22;20413;50.782;7.152;2023-02-18T16:08:23;11.80;99.90
27409;DHT22;20413;50.782;7.152;2023-02-18T16:11:23;11.70;99.90
27409;DHT22;20413;50.782;7.152;2023-02-18T16:13:46;11.70;99.90
27409;DHT22;20413;50.782;7.152;2023-02-18T16:16:31;11.70;99.90
27409;DHT22;20413;50.782;7.152;2023-02-18T16:18:58;11.70;99.90
27409;DHT22;20413;50.782;7.152;2023-02-18T16:21:38;11.70;99.90
27409;DHT22;20413;50.782;7.152;2023-02-18T16:24:25;11.70;99.90
27409;DHT22;20413;50.782;7.152;2023-02-18T16:26:54;11.70;99.90
27409;DHT22;20413;50.782;7.152;2023-02-18T16:29:24;11.70;99.90
27409;DHT22;20413;50.782;7.152;2023-02-18T16:31:50;11.60;99.90
27409;DHT22;20413;50.782;7.152;2023-02-18T16:34:16;11.60;99.90
27409;DHT22;20413;50.782;7.152;2023-02-18T16:36:43;11.60;99.90
27409;DHT22;20413;50.782;7.152;2023-02-18T16:39:29;11.60;99.90
27409;DHT22;20413;50.782;7.152;2023-02-18T16:41:57;11.60;99.90
27409;DHT22;20413;50.782;7.152;2023-02-18T16:44:22;11.60;99.90
27409;DHT22;20413;50.782;7.152;2023-02-18T16:46:48;11.50;99.90
27409;DHT22;20413;50.782;7.152;2023-02-18T16:49:14;11.50;99.90
27409;DHT22;20413;50.782;7.152;2023-02-18T16:51:40;11.50;99.90
27409;DHT22;20413;50.782;7.152;2023-02-18T16:54:11;11.50;99.90
27409;DHT22;20413;50.782;7.152;2023-02-18T16:56:37;11.50;99.90
27409;DHT22;20413;50.782;7.152;2023-02-18T16:59:03;11.40;99.90
27409;DHT22;20413;50.782;7.152;2023-02-18T17:01:31;11.40;99.90
27409;DHT22;20413;50.782;7.152;2023-02-18T17:03:59;11.40;99.90
27409;DHT22;20413;50.782;7.152;2023-02-18T17:06:26;11.40;99.90
27409;DHT22;20413;50.782;7.152;2023-02-18T17:08:52;11.40;99.90
27409;DHT22;20413;50.782;7.152;2023-02-18T17:11:24;11.40;99.90
27409;DHT22;20413;50.782;7.152;2023-02-18T17:13:52;11.40;99.90
27409;DHT22;20413;50.782;7.152;2023-02-18T17:16:18;11.30;99.90
27409;DHT22;20413;50.782;7.152;2023-02-18T17:18:44;11.30;99.90
27409;DHT22;20413;50.782;7.152;2023-02-18T17:21:18;11.40;99.90
27409;DHT22;20413;50.782;7.152;2023-02-18T17:23:44;11.30;99.90
27409;DHT22;20413;50.782;7.152;2023-02-18T17:26:17;11.30;99.90
27409;DHT22;20413;50.782;7.152;2023-02-18T17:28:43;11.30;99.90
27409;DHT22;20413;50.782;7.152;2023-02-18T17:31:18;11.30;99.90
27409;DHT22;20413;50.782;7.152;2023-02-18T17:33:45;11.20;99.90
27409;DHT22;20413;50.782;7.152;2023-02-18T17:36:20;11.20;99.90
27409;DHT22;20413;50.782;7.152;2023-02-18T17:38:45;11.20;99.90
27409;DHT22;20413;50.782;7.152;2023-02-18T17:41:14;11.20;99.90
27409;DHT22;20413;50.782;7.152;2023-02-18T17:43:39;11.20;99.90
27409;DHT22;20413;50.782;7.152;2023-02-18T17:46:09;11.20;99.90
27409;DHT22;20413;50.782;7.152;2023-02-18T17:48:36;11.20;99.90
27409;DHT22;20413;50.782;7.152;2023-02-18T17:51:01;11.20;99.90
27409;DHT22;20413;50.782;7.152;2023-02-18T17:53:27;11.20;99.90
27409;DHT22;20413;50.782;7.152;2023-02-18T17:55:52;11.20;99.90
27409;DHT22;20413;50.782;7.152;2023-02-18T17:58:18;11.10;99.90
27409;DHT22;20413;50.782;7.152;2023-02-18T18:00:47;11.10;99.90